sensor_id;sensor_type;location;lat;lon;timestamp;P1;durP1;ratioP1;P2;durP2;ratioP2
13085;SDS011;6609;49.882;8.664;2023-02-01T00:01:50;10.40;;;4.47;;
13085;SDS011;6609;49.882;8.664;2023-02-01T00:04:17;9.67;;;5.03;;
13085;SDS011;6609;49.882;8.664;2023-02-01T00:06:43;9.63;;;5.00;;
13085;SDS011;6609;49.882;8.664;2023-02-01T00:09:11;10.37;;;5.27;;
13085;SDS011;6609;49.882;8.664;2023-02-01T00:11:39;9.13;;;4.60;;
13085;SDS011;6609;49.882;8.664;2023-02-01T00:14:05;8.60;;;4.53;;
13085;SDS011;6609;49.882;8.664;2023-02-01T00:16:34;8.60;;;4.43;;
13085;SDS011;6609;49.882;8.664;2023-02-01T00:19:02;11.73;;;5.27;;
13085;SDS011;6609;49.882;8.664;2023-02-01T00:21:30;10.90;;;5.10;;
13085;SDS011;6609;49.882;8.664;2023-02-01T00:23:57;12.87;;;5.10;;
13085;SDS011;6609;49.882;8.664;2023-02-01T00:26:25;15.90;;;5.00;;
13085;SDS011;6609;49.882;8.664;2023-02-01T00:28:57;9.60;;;5.43;;
13085;SDS011;6609;49.882;8.664;2023-02-01T00:31:24;12.70;;;5.70;;
13085;SDS011;6609;49.882;8.664;2023-02-01T00:33:51;13.53;;;5.43;;
13085;SDS011;6609;49.882;8.664;2023-02-01T00:36:19;9.77;;;5.00;;
13085;SDS011;6609;49.882;8.664;2023-02-01T00:38:46;8.23;;;4.47;;
13085;SDS011;6609;49.882;8.664;2023-02-01T00:41:13;11.40;;;5.43;;
13085;SDS011;6609;49.882;8.664;2023-02-01T00:43:41;9.97;;;5.50;;
13085;SDS011;6609;49.882;8.664;2023-02-01T00:46:10;7.77;;;4.43;;
13085;SDS011;6609;49.882;8.664;2023-02-01T00:48:37;12.30;;;5.80;;
13085;SDS011;6609;49.882;8.664;2023-02-01T00:51:05;8.47;;;5.03;;
13085;SDS011;6609;49.882;8.664;2023-02-01T00:53:33;12.17;;;6.50;;
13085;SDS011;6609;49.882;8.664;2023-02-01T00:56:01;11.27;;;4.80;;
13085;SDS011;6609;49.882;8.664;2023-02-01T00:58:28;10.03;;;5.53;;
13085;SDS011;6609;49.882;8.664;2023-02-01T01:01:02;9.63;;;5.50;;
13085;SDS011;6609;49.882;8.664;2023-02-01T01:03:34;11.17;;;6.00;;
13085;SDS011;6609;49.882;8.664;2023-02-01T01:06:04;9.63;;;5.67;;
13085;SDS011;6609;49.882;8.664;2023-02-01T01:08:32;11.37;;;5.43;;
13085;SDS011;6609;49.882;8.664;2023-02-01T01:10:59;12.70;;;5.37;;
13085;SDS011;6609;49.882;8.664;2023-02-01T01:13:30;11.57;;;6.10;;
13085;SDS011;6609;49.882;8.664;2023-02-01T01:15:59;11.50;;;5.33;;
13085;SDS011;6609;49.882;8.664;2023-02-01T01:18:27;13.60;;;5.53;;
13085;SDS011;6609;49.882;8.664;2023-02-01T01:20:55;11.10;;;5.30;;
13085;SDS011;6609;49.882;8.664;2023-02-01T01:23:22;11.27;;;5.53;;
13085;SDS011;6609;49.882;8.664;2023-02-01T01:25:49;8.90;;;5.17;;
13085;SDS011;6609;49.882;8.664;2023-02-01T01:28:16;14.70;;;6.27;;
13085;SDS011;6609;49.882;8.664;2023-02-01T01:30:43;9.83;;;5.63;;
13085;SDS011;6609;49.882;8.664;2023-02-01T01:33:10;8.40;;;5.10;;
13085;SDS011;6609;49.882;8.664;2023-02-01T01:35:37;11.60;;;6.27;;
13085;SDS011;6609;49.882;8.664;2023-02-01T01:38:05;10.97;;;5.97;;
13085;SDS011;6609;49.882;8.664;2023-02-01T01:40:32;10.30;;;5.90;;
13085;SDS011;6609;49.882;8.664;2023-02-01T01:42:58;12.60;;;5.83;;
13085;SDS011;6609;49.882;8.664;2023-02-01T01:45:27;10.07;;;6.00;;
13085;SDS011;6609;49.882;8.664;2023-02-01T01:47:54;12.07;;;6.43;;
13085;SDS011;6609;49.882;8.664;2023-02-01T01:50:24;13.97;;;6.73;;
13085;SDS011;6609;49.882;8.664;2023-02-01T01:52:54;12.93;;;6.77;;
13085;SDS011;6609;49.882;8.664;2023-02-01T01:55:24;16.17;;;6.90;;
13085;SDS011;6609;49.882;8.664;2023-02-01T01:57:54;12.40;;;6.43;;
13085;SDS011;6609;49.882;8.664;2023-02-01T02:00:24;10.93;;;6.27;;
13085;SDS011;6609;49.882;8.664;2023-02-01T02:02:53;12.67;;;6.57;;
13085;SDS011;6609;49.882;8.664;2023-02-01T02:05:23;12.90;;;6.70;;
13085;SDS011;6609;49.882;8.664;2023-02-01T02:07:50;12.30;;;6.17;;
13085;SDS011;6609;49.882;8.664;2023-02-01T02:10:19;13.93;;;6.60;;
13085;SDS011;6609;49.882;8.664;2023-02-01T02:12:47;12.93;;;6.27;;
13085;SDS011;6609;49.882;8.664;2023-02-01T02:15:15;12.73;;;6.83;;
13085;SDS011;6609;49.882;8.664;2023-02-01T02:17:44;12.30;;;6.50;;
13085;SDS011;6609;49.882;8.664;2023-02-01T02:20:22;11.20;;;6.10;;
13085;SDS011;6609;49.882;8.664;2023-02-01T02:23:12;12.73;;;6.53;;
13085;SDS011;6609;49.882;8.664;2023-02-01T02:26:11;16.43;;;7.63;;
13085;SDS011;6609;49.882;8.664;2023-02-01T02:28:57;16.33;;;7.07;;
13085;SDS011;6609;49.882;8.664;2023-02-01T02:34:19;14.83;;;7.43;;
13085;SDS011;6609;49.882;8.664;2023-02-01T02:36:54;13.97;;;7.10;;
13085;SDS011;6609;49.882;8.664;2023-02-01T02:39:23;13.47;;;7.37;;
13085;SDS011;6609;49.882;8.664;2023-02-01T02:42:01;14.30;;;6.87;;
13085;SDS011;6609;49.882;8.664;2023-02-01T02:44:53;15.37;;;7.83;;
13085;SDS011;6609;49.882;8.664;2023-02-01T02:47:42;16.53;;;7.87;;
13085;SDS011;6609;49.882;8.664;2023-02-01T02:50:17;15.57;;;8.20;;
13085;SDS011;6609;49.882;8.664;2023-02-01T02:53:08;14.23;;;8.27;;
13085;SDS011;6609;49.882;8.664;2023-02-01T02:55:55;16.00;;;8.17;;
13085;SDS011;6609;49.882;8.664;2023-02-01T02:58:40;14.27;;;8.27;;
13085;SDS011;6609;49.882;8.664;2023-02-01T03:01:26;15.57;;;8.90;;
13085;SDS011;6609;49.882;8.664;2023-02-01T03:04:11;17.23;;;9.20;;
13085;SDS011;6609;49.882;8.664;2023-02-01T03:06:43;19.50;;;9.50;;
13085;SDS011;6609;49.882;8.664;2023-02-01T03:09:13;16.80;;;8.83;;
13085;SDS011;6609;49.882;8.664;2023-02-01T03:11:45;15.30;;;8.90;;
13085;SDS011;6609;49.882;8.664;2023-02-01T03:14:33;15.87;;;8.57;;
13085;SDS011;6609;49.882;8.664;2023-02-01T03:17:03;18.63;;;7.80;;
13085;SDS011;6609;49.882;8.664;2023-02-01T03:19:37;19.43;;;7.93;;
13085;SDS011;6609;49.882;8.664;2023-02-01T03:22:10;18.90;;;7.87;;
13085;SDS011;6609;49.882;8.664;2023-02-01T03:24:41;15.07;;;7.73;;
13085;SDS011;6609;49.882;8.664;2023-02-01T03:27:10;17.33;;;7.17;;
13085;SDS011;6609;49.882;8.664;2023-02-01T03:29:43;12.67;;;7.07;;
13085;SDS011;6609;49.882;8.664;2023-02-01T03:32:14;14.47;;;8.43;;
13085;SDS011;6609;49.882;8.664;2023-02-01T03:34:41;17.90;;;7.30;;
13085;SDS011;6609;49.882;8.664;2023-02-01T03:37:10;16.00;;;6.67;;
13085;SDS011;6609;49.882;8.664;2023-02-01T03:39:41;12.73;;;6.97;;
13085;SDS011;6609;49.882;8.664;2023-02-01T03:42:13;16.13;;;6.93;;
13085;SDS011;6609;49.882;8.664;2023-02-01T03:44:45;13.70;;;6.90;;
13085;SDS011;6609;49.882;8.664;2023-02-01T03:47:16;13.77;;;5.93;;
13085;SDS011;6609;49.882;8.664;2023-02-01T03:49:47;9.57;;;5.57;;
13085;SDS011;6609;49.882;8.664;2023-02-01T03:52:18;13.73;;;6.57;;
13085;SDS011;6609;49.882;8.664;2023-02-01T03:54:48;11.63;;;5.63;;
13085;SDS011;6609;49.882;8.664;2023-02-01T03:57:17;12.03;;;6.00;;
13085;SDS011;6609;49.882;8.664;2023-02-01T03:59:48;11.40;;;6.17;;
13085;SDS011;6609;49.882;8.664;2023-02-01T04:02:16;12.23;;;5.90;;
13085;SDS011;6609;49.882;8.664;2023-02-01T04:04:42;14.47;;;6.70;;
13085;SDS011;6609;49.882;8.664;2023-02-01T04:07:10;12.77;;;6.10;;
13085;SDS011;6609;49.882;8.664;2023-02-01T04:09:38;10.20;;;5.60;;
13085;SDS011;6609;49.882;8.664;2023-02-01T04:12:05;12.87;;;7.27;;
13085;SDS011;6609;49.882;8.664;2023-02-01T04:14:32;13.47;;;7.47;;
13085;SDS011;6609;49.882;8.664;2023-02-01T04:17:00;9.73;;;6.73;;
13085;SDS011;6609;49.882;8.664;2023-02-01T04:19:27;12.57;;;6.30;;
13085;SDS011;6609;49.882;8.664;2023-02-01T04:21:54;11.03;;;6.73;;
13085;SDS011;6609;49.882;8.664;2023-02-01T04:24:21;17.20;;;7.37;;
13085;SDS011;6609;49.882;8.664;2023-02-01T04:26:49;11.93;;;6.20;;
13085;SDS011;6609;49.882;8.664;2023-02-01T04:29:16;13.17;;;6.90;;
13085;SDS011;6609;49.882;8.664;2023-02-01T04:31:43;11.77;;;6.50;;
13085;SDS011;6609;49.882;8.664;2023-02-01T04:34:11;15.73;;;6.87;;
13085;SDS011;6609;49.882;8.664;2023-02-01T04:36:38;10.10;;;5.93;;
13085;SDS011;6609;49.882;8.664;2023-02-01T04:39:05;11.43;;;6.57;;
13085;SDS011;6609;49.882;8.664;2023-02-01T04:41:32;14.70;;;6.47;;
13085;SDS011;6609;49.882;8.664;2023-02-01T04:44:00;15.40;;;6.00;;
13085;SDS011;6609;49.882;8.664;2023-02-01T04:46:27;17.00;;;6.67;;
13085;SDS011;6609;49.882;8.664;2023-02-01T04:48:54;11.10;;;6.47;;
13085;SDS011;6609;49.882;8.664;2023-02-01T04:51:21;13.00;;;5.90;;
13085;SDS011;6609;49.882;8.664;2023-02-01T04:53:48;10.30;;;5.67;;
13085;SDS011;6609;49.882;8.664;2023-02-01T04:56:15;12.87;;;5.60;;
13085;SDS011;6609;49.882;8.664;2023-02-01T04:58:42;9.23;;;5.20;;
13085;SDS011;6609;49.882;8.664;2023-02-01T05:01:11;10.53;;;5.07;;
13085;SDS011;6609;49.882;8.664;2023-02-01T05:03:37;9.97;;;4.50;;
13085;SDS011;6609;49.882;8.664;2023-02-01T05:06:04;8.30;;;4.93;;
13085;SDS011;6609;49.882;8.664;2023-02-01T05:08:31;13.80;;;5.63;;
13085;SDS011;6609;49.882;8.664;2023-02-01T05:10:58;9.73;;;4.50;;
13085;SDS011;6609;49.882;8.664;2023-02-01T05:13:27;11.30;;;4.67;;
13085;SDS011;6609;49.882;8.664;2023-02-01T05:16:12;8.93;;;5.00;;
13085;SDS011;6609;49.882;8.664;2023-02-01T05:18:39;7.70;;;3.60;;
13085;SDS011;6609;49.882;8.664;2023-02-01T05:21:06;7.10;;;3.63;;
13085;SDS011;6609;49.882;8.664;2023-02-01T05:23:33;7.00;;;3.27;;
13085;SDS011;6609;49.882;8.664;2023-02-01T05:26:21;5.73;;;3.10;;
13085;SDS011;6609;49.882;8.664;2023-02-01T05:28:48;8.80;;;3.30;;
13085;SDS011;6609;49.882;8.664;2023-02-01T05:31:16;6.20;;;3.07;;
13085;SDS011;6609;49.882;8.664;2023-02-01T05:33:42;6.27;;;2.87;;
13085;SDS011;6609;49.882;8.664;2023-02-01T05:36:09;10.20;;;3.80;;
13085;SDS011;6609;49.882;8.664;2023-02-01T05:38:36;7.73;;;3.40;;
13085;SDS011;6609;49.882;8.664;2023-02-01T05:41:03;14.27;;;3.60;;
13085;SDS011;6609;49.882;8.664;2023-02-01T05:43:29;10.63;;;3.63;;
13085;SDS011;6609;49.882;8.664;2023-02-01T05:45:57;12.40;;;3.40;;
13085;SDS011;6609;49.882;8.664;2023-02-01T05:48:25;10.73;;;3.00;;
13085;SDS011;6609;49.882;8.664;2023-02-01T05:50:52;7.57;;;2.60;;
13085;SDS011;6609;49.882;8.664;2023-02-01T05:53:19;7.63;;;2.80;;
13085;SDS011;6609;49.882;8.664;2023-02-01T05:55:46;8.87;;;3.00;;
13085;SDS011;6609;49.882;8.664;2023-02-01T05:58:13;9.20;;;3.57;;
13085;SDS011;6609;49.882;8.664;2023-02-01T06:00:40;8.47;;;3.10;;
13085;SDS011;6609;49.882;8.664;2023-02-01T06:03:07;7.10;;;2.50;;
13085;SDS011;6609;49.882;8.664;2023-02-01T06:05:35;7.57;;;2.50;;
13085;SDS011;6609;49.882;8.664;2023-02-01T06:08:03;7.70;;;2.77;;
13085;SDS011;6609;49.882;8.664;2023-02-01T06:10:32;6.00;;;2.20;;
13085;SDS011;6609;49.882;8.664;2023-02-01T06:12:59;4.80;;;2.20;;
13085;SDS011;6609;49.882;8.664;2023-02-01T06:15:28;5.47;;;2.20;;
13085;SDS011;6609;49.882;8.664;2023-02-01T06:17:55;8.10;;;2.60;;
13085;SDS011;6609;49.882;8.664;2023-02-01T06:20:22;7.43;;;2.67;;
13085;SDS011;6609;49.882;8.664;2023-02-01T06:22:50;9.57;;;2.20;;
13085;SDS011;6609;49.882;8.664;2023-02-01T06:25:18;7.40;;;2.53;;
13085;SDS011;6609;49.882;8.664;2023-02-01T06:27:46;7.47;;;2.30;;
13085;SDS011;6609;49.882;8.664;2023-02-01T06:30:13;7.20;;;2.40;;
13085;SDS011;6609;49.882;8.664;2023-02-01T06:32:40;9.10;;;2.47;;
13085;SDS011;6609;49.882;8.664;2023-02-01T06:35:08;6.43;;;2.50;;
13085;SDS011;6609;49.882;8.664;2023-02-01T06:37:36;6.60;;;2.53;;
13085;SDS011;6609;49.882;8.664;2023-02-01T06:40:04;10.53;;;3.10;;
13085;SDS011;6609;49.882;8.664;2023-02-01T06:42:32;5.77;;;2.03;;
13085;SDS011;6609;49.882;8.664;2023-02-01T06:44:59;11.17;;;2.87;;
13085;SDS011;6609;49.882;8.664;2023-02-01T06:47:26;6.13;;;2.53;;
13085;SDS011;6609;49.882;8.664;2023-02-01T06:49:53;7.30;;;3.13;;
13085;SDS011;6609;49.882;8.664;2023-02-01T06:52:20;7.90;;;2.53;;
13085;SDS011;6609;49.882;8.664;2023-02-01T06:54:46;7.07;;;2.40;;
13085;SDS011;6609;49.882;8.664;2023-02-01T06:57:15;6.97;;;2.53;;
13085;SDS011;6609;49.882;8.664;2023-02-01T06:59:41;6.57;;;2.60;;
13085;SDS011;6609;49.882;8.664;2023-02-01T07:02:09;10.47;;;3.47;;
13085;SDS011;6609;49.882;8.664;2023-02-01T07:04:36;9.43;;;3.07;;
13085;SDS011;6609;49.882;8.664;2023-02-01T07:07:03;7.90;;;3.30;;
13085;SDS011;6609;49.882;8.664;2023-02-01T07:09:30;7.43;;;3.73;;
13085;SDS011;6609;49.882;8.664;2023-02-01T07:11:57;8.50;;;3.13;;
13085;SDS011;6609;49.882;8.664;2023-02-01T07:14:25;6.10;;;2.87;;
13085;SDS011;6609;49.882;8.664;2023-02-01T07:16:52;8.77;;;2.93;;
13085;SDS011;6609;49.882;8.664;2023-02-01T07:19:19;6.13;;;2.53;;
13085;SDS011;6609;49.882;8.664;2023-02-01T07:21:46;7.37;;;2.53;;
13085;SDS011;6609;49.882;8.664;2023-02-01T07:24:13;8.20;;;2.93;;
13085;SDS011;6609;49.882;8.664;2023-02-01T07:26:40;7.63;;;2.23;;
13085;SDS011;6609;49.882;8.664;2023-02-01T07:29:07;6.10;;;2.50;;
13085;SDS011;6609;49.882;8.664;2023-02-01T07:31:35;8.03;;;2.90;;
13085;SDS011;6609;49.882;8.664;2023-02-01T07:34:02;8.60;;;2.90;;
13085;SDS011;6609;49.882;8.664;2023-02-01T07:36:29;10.57;;;2.90;;
13085;SDS011;6609;49.882;8.664;2023-02-01T07:38:57;8.97;;;2.93;;
13085;SDS011;6609;49.882;8.664;2023-02-01T07:41:24;9.03;;;2.83;;
13085;SDS011;6609;49.882;8.664;2023-02-01T07:43:52;7.77;;;3.17;;
13085;SDS011;6609;49.882;8.664;2023-02-01T07:46:19;8.00;;;3.13;;
13085;SDS011;6609;49.882;8.664;2023-02-01T07:48:47;11.30;;;3.50;;
13085;SDS011;6609;49.882;8.664;2023-02-01T07:51:14;10.87;;;3.20;;
13085;SDS011;6609;49.882;8.664;2023-02-01T07:53:42;12.03;;;3.33;;
13085;SDS011;6609;49.882;8.664;2023-02-01T07:56:10;8.63;;;3.83;;
13085;SDS011;6609;49.882;8.664;2023-02-01T07:58:38;11.97;;;4.00;;
13085;SDS011;6609;49.882;8.664;2023-02-01T08:01:05;10.50;;;3.90;;
13085;SDS011;6609;49.882;8.664;2023-02-01T08:03:51;8.23;;;3.17;;
13085;SDS011;6609;49.882;8.664;2023-02-01T08:06:19;7.87;;;3.23;;
13085;SDS011;6609;49.882;8.664;2023-02-01T08:08:46;11.47;;;3.93;;
13085;SDS011;6609;49.882;8.664;2023-02-01T08:11:14;11.97;;;4.03;;
13085;SDS011;6609;49.882;8.664;2023-02-01T08:13:41;14.03;;;4.77;;
13085;SDS011;6609;49.882;8.664;2023-02-01T08:16:09;9.17;;;3.87;;
13085;SDS011;6609;49.882;8.664;2023-02-01T08:18:37;9.23;;;4.00;;
13085;SDS011;6609;49.882;8.664;2023-02-01T08:21:07;12.77;;;4.23;;
13085;SDS011;6609;49.882;8.664;2023-02-01T08:23:34;12.53;;;4.07;;
13085;SDS011;6609;49.882;8.664;2023-02-01T08:26:06;15.70;;;4.57;;
13085;SDS011;6609;49.882;8.664;2023-02-01T08:28:33;11.30;;;4.67;;
13085;SDS011;6609;49.882;8.664;2023-02-01T08:31:03;10.73;;;3.90;;
13085;SDS011;6609;49.882;8.664;2023-02-01T08:33:31;16.50;;;4.40;;
13085;SDS011;6609;49.882;8.664;2023-02-01T08:35:59;11.10;;;3.17;;
13085;SDS011;6609;49.882;8.664;2023-02-01T08:38:28;10.23;;;3.63;;
13085;SDS011;6609;49.882;8.664;2023-02-01T08:40:55;7.70;;;3.23;;
13085;SDS011;6609;49.882;8.664;2023-02-01T08:43:22;12.23;;;3.90;;
13085;SDS011;6609;49.882;8.664;2023-02-01T08:45:49;13.77;;;3.63;;
13085;SDS011;6609;49.882;8.664;2023-02-01T08:48:16;15.80;;;4.53;;
13085;SDS011;6609;49.882;8.664;2023-02-01T08:50:42;9.87;;;3.43;;
13085;SDS011;6609;49.882;8.664;2023-02-01T08:53:09;10.73;;;3.33;;
13085;SDS011;6609;49.882;8.664;2023-02-01T08:55:40;11.07;;;4.40;;
13085;SDS011;6609;49.882;8.664;2023-02-01T08:58:06;13.07;;;4.47;;
13085;SDS011;6609;49.882;8.664;2023-02-01T09:00:33;10.80;;;4.13;;
13085;SDS011;6609;49.882;8.664;2023-02-01T09:03:00;17.57;;;3.63;;
13085;SDS011;6609;49.882;8.664;2023-02-01T09:05:27;13.53;;;3.73;;
13085;SDS011;6609;49.882;8.664;2023-02-01T09:07:53;12.20;;;4.33;;
13085;SDS011;6609;49.882;8.664;2023-02-01T09:10:20;11.20;;;3.43;;
13085;SDS011;6609;49.882;8.664;2023-02-01T09:12:48;12.57;;;3.07;;
13085;SDS011;6609;49.882;8.664;2023-02-01T09:15:16;11.07;;;3.23;;
13085;SDS011;6609;49.882;8.664;2023-02-01T09:17:43;10.23;;;3.57;;
13085;SDS011;6609;49.882;8.664;2023-02-01T09:20:11;14.33;;;3.90;;
13085;SDS011;6609;49.882;8.664;2023-02-01T09:22:38;11.90;;;3.23;;
13085;SDS011;6609;49.882;8.664;2023-02-01T09:25:05;10.67;;;3.50;;
13085;SDS011;6609;49.882;8.664;2023-02-01T09:27:33;9.80;;;3.47;;
13085;SDS011;6609;49.882;8.664;2023-02-01T09:30:01;11.20;;;3.20;;
13085;SDS011;6609;49.882;8.664;2023-02-01T09:32:29;16.40;;;3.50;;
13085;SDS011;6609;49.882;8.664;2023-02-01T09:34:56;11.83;;;3.00;;
13085;SDS011;6609;49.882;8.664;2023-02-01T09:37:23;10.47;;;2.80;;
13085;SDS011;6609;49.882;8.664;2023-02-01T09:39:50;10.17;;;3.10;;
13085;SDS011;6609;49.882;8.664;2023-02-01T09:42:21;11.57;;;2.67;;
13085;SDS011;6609;49.882;8.664;2023-02-01T09:45:12;10.83;;;2.97;;
13085;SDS011;6609;49.882;8.664;2023-02-01T09:47:46;13.93;;;3.27;;
13085;SDS011;6609;49.882;8.664;2023-02-01T09:50:15;8.30;;;2.50;;
13085;SDS011;6609;49.882;8.664;2023-02-01T09:52:47;13.60;;;2.93;;
13085;SDS011;6609;49.882;8.664;2023-02-01T09:55:20;11.23;;;3.03;;
13085;SDS011;6609;49.882;8.664;2023-02-01T09:57:55;13.90;;;3.10;;
13085;SDS011;6609;49.882;8.664;2023-02-01T10:00:28;9.73;;;2.70;;
13085;SDS011;6609;49.882;8.664;2023-02-01T10:02:56;12.47;;;3.43;;
13085;SDS011;6609;49.882;8.664;2023-02-01T10:05:27;13.07;;;2.40;;
13085;SDS011;6609;49.882;8.664;2023-02-01T10:08:09;12.67;;;3.40;;
13085;SDS011;6609;49.882;8.664;2023-02-01T10:10:43;12.40;;;4.00;;
13085;SDS011;6609;49.882;8.664;2023-02-01T10:13:22;14.40;;;3.10;;
13085;SDS011;6609;49.882;8.664;2023-02-01T10:16:03;14.17;;;3.70;;
13085;SDS011;6609;49.882;8.664;2023-02-01T10:18:46;13.07;;;3.60;;
13085;SDS011;6609;49.882;8.664;2023-02-01T10:21:19;14.63;;;2.23;;
13085;SDS011;6609;49.882;8.664;2023-02-01T10:24:08;12.63;;;3.00;;
13085;SDS011;6609;49.882;8.664;2023-02-01T10:26:44;16.27;;;2.70;;
13085;SDS011;6609;49.882;8.664;2023-02-01T10:29:14;13.07;;;3.93;;
13085;SDS011;6609;49.882;8.664;2023-02-01T10:31:44;13.77;;;3.30;;
13085;SDS011;6609;49.882;8.664;2023-02-01T10:34:14;12.63;;;3.53;;
13085;SDS011;6609;49.882;8.664;2023-02-01T10:36:48;15.73;;;4.47;;
13085;SDS011;6609;49.882;8.664;2023-02-01T10:39:19;15.00;;;3.33;;
13085;SDS011;6609;49.882;8.664;2023-02-01T10:41:46;13.30;;;3.33;;
13085;SDS011;6609;49.882;8.664;2023-02-01T10:44:14;9.73;;;2.80;;
13085;SDS011;6609;49.882;8.664;2023-02-01T10:46:44;13.17;;;2.77;;
13085;SDS011;6609;49.882;8.664;2023-02-01T10:49:12;11.03;;;3.37;;
13085;SDS011;6609;49.882;8.664;2023-02-01T10:51:42;10.70;;;2.77;;
13085;SDS011;6609;49.882;8.664;2023-02-01T10:54:11;13.03;;;3.57;;
13085;SDS011;6609;49.882;8.664;2023-02-01T10:56:45;7.73;;;2.83;;
13085;SDS011;6609;49.882;8.664;2023-02-01T10:59:14;12.60;;;2.93;;
13085;SDS011;6609;49.882;8.664;2023-02-01T11:01:44;14.83;;;3.90;;
13085;SDS011;6609;49.882;8.664;2023-02-01T11:04:12;14.77;;;2.63;;
13085;SDS011;6609;49.882;8.664;2023-02-01T11:06:40;13.17;;;3.00;;
13085;SDS011;6609;49.882;8.664;2023-02-01T11:09:10;11.50;;;2.97;;
13085;SDS011;6609;49.882;8.664;2023-02-01T11:11:52;11.80;;;3.40;;
13085;SDS011;6609;49.882;8.664;2023-02-01T11:14:27;14.73;;;2.93;;
13085;SDS011;6609;49.882;8.664;2023-02-01T11:17:01;12.10;;;3.37;;
13085;SDS011;6609;49.882;8.664;2023-02-01T11:19:43;10.17;;;2.73;;
13085;SDS011;6609;49.882;8.664;2023-02-01T11:22:11;11.53;;;2.97;;
13085;SDS011;6609;49.882;8.664;2023-02-01T11:24:39;6.93;;;2.77;;
13085;SDS011;6609;49.882;8.664;2023-02-01T11:27:12;10.73;;;2.83;;
13085;SDS011;6609;49.882;8.664;2023-02-01T11:29:42;7.90;;;2.83;;
13085;SDS011;6609;49.882;8.664;2023-02-01T11:32:12;13.90;;;3.53;;
13085;SDS011;6609;49.882;8.664;2023-02-01T11:34:41;7.93;;;2.63;;
13085;SDS011;6609;49.882;8.664;2023-02-01T11:37:18;10.00;;;3.70;;
13085;SDS011;6609;49.882;8.664;2023-02-01T11:39:53;12.10;;;2.93;;
13085;SDS011;6609;49.882;8.664;2023-02-01T11:42:21;13.27;;;3.70;;
13085;SDS011;6609;49.882;8.664;2023-02-01T11:44:48;14.67;;;3.10;;
13085;SDS011;6609;49.882;8.664;2023-02-01T11:47:20;12.50;;;2.53;;
13085;SDS011;6609;49.882;8.664;2023-02-01T11:49:49;10.63;;;3.53;;
13085;SDS011;6609;49.882;8.664;2023-02-01T11:52:18;10.60;;;2.83;;
13085;SDS011;6609;49.882;8.664;2023-02-01T11:55:18;14.10;;;3.50;;
13085;SDS011;6609;49.882;8.664;2023-02-01T11:58:00;12.50;;;2.93;;
13085;SDS011;6609;49.882;8.664;2023-02-01T12:00:40;16.20;;;3.07;;
13085;SDS011;6609;49.882;8.664;2023-02-01T12:03:38;11.73;;;3.27;;
13085;SDS011;6609;49.882;8.664;2023-02-01T12:06:14;10.13;;;2.50;;
13085;SDS011;6609;49.882;8.664;2023-02-01T12:08:56;12.23;;;2.97;;
13085;SDS011;6609;49.882;8.664;2023-02-01T12:11:37;8.77;;;2.73;;
13085;SDS011;6609;49.882;8.664;2023-02-01T12:14:17;12.10;;;2.90;;
13085;SDS011;6609;49.882;8.664;2023-02-01T12:16:53;8.10;;;2.53;;
13085;SDS011;6609;49.882;8.664;2023-02-01T12:19:36;14.70;;;2.27;;
13085;SDS011;6609;49.882;8.664;2023-02-01T12:22:14;13.20;;;3.20;;
13085;SDS011;6609;49.882;8.664;2023-02-01T12:24:53;14.17;;;4.07;;
13085;SDS011;6609;49.882;8.664;2023-02-01T12:27:56;10.87;;;2.70;;
13085;SDS011;6609;49.882;8.664;2023-02-01T12:30:55;17.37;;;3.97;;
13085;SDS011;6609;49.882;8.664;2023-02-01T12:33:36;14.97;;;3.20;;
13085;SDS011;6609;49.882;8.664;2023-02-01T12:36:12;12.47;;;3.37;;
13085;SDS011;6609;49.882;8.664;2023-02-01T12:38:44;10.83;;;3.00;;
13085;SDS011;6609;49.882;8.664;2023-02-01T12:41:20;8.57;;;2.10;;
13085;SDS011;6609;49.882;8.664;2023-02-01T12:43:58;12.47;;;2.83;;
13085;SDS011;6609;49.882;8.664;2023-02-01T12:46:32;8.03;;;2.80;;
13085;SDS011;6609;49.882;8.664;2023-02-01T12:49:05;8.83;;;3.10;;
13085;SDS011;6609;49.882;8.664;2023-02-01T12:51:34;12.10;;;2.83;;
13085;SDS011;6609;49.882;8.664;2023-02-01T12:54:04;11.83;;;2.80;;
13085;SDS011;6609;49.882;8.664;2023-02-01T12:56:37;9.73;;;2.67;;
13085;SDS011;6609;49.882;8.664;2023-02-01T12:59:12;14.17;;;3.50;;
13085;SDS011;6609;49.882;8.664;2023-02-01T13:01:44;8.10;;;2.50;;
13085;SDS011;6609;49.882;8.664;2023-02-01T13:04:18;11.80;;;3.20;;
13085;SDS011;6609;49.882;8.664;2023-02-01T13:06:50;9.53;;;3.67;;
13085;SDS011;6609;49.882;8.664;2023-02-01T13:09:20;9.90;;;3.00;;
13085;SDS011;6609;49.882;8.664;2023-02-01T13:11:51;11.80;;;3.40;;
13085;SDS011;6609;49.882;8.664;2023-02-01T13:14:21;13.40;;;3.13;;
13085;SDS011;6609;49.882;8.664;2023-02-01T13:16:56;13.07;;;3.57;;
13085;SDS011;6609;49.882;8.664;2023-02-01T13:19:27;10.17;;;2.40;;
13085;SDS011;6609;49.882;8.664;2023-02-01T13:21:59;16.03;;;3.30;;
13085;SDS011;6609;49.882;8.664;2023-02-01T13:24:33;18.20;;;3.50;;
13085;SDS011;6609;49.882;8.664;2023-02-01T13:27:05;12.73;;;3.40;;
13085;SDS011;6609;49.882;8.664;2023-02-01T13:29:32;13.33;;;2.57;;
13085;SDS011;6609;49.882;8.664;2023-02-01T13:32:04;12.10;;;2.97;;
13085;SDS011;6609;49.882;8.664;2023-02-01T13:34:58;11.03;;;3.20;;
13085;SDS011;6609;49.882;8.664;2023-02-01T13:37:52;10.00;;;2.80;;
13085;SDS011;6609;49.882;8.664;2023-02-01T13:40:28;11.40;;;3.30;;
13085;SDS011;6609;49.882;8.664;2023-02-01T13:43:05;10.43;;;3.13;;
13085;SDS011;6609;49.882;8.664;2023-02-01T13:45:36;14.73;;;2.97;;
13085;SDS011;6609;49.882;8.664;2023-02-01T13:48:17;19.67;;;3.30;;
13085;SDS011;6609;49.882;8.664;2023-02-01T13:50:49;8.60;;;2.40;;
13085;SDS011;6609;49.882;8.664;2023-02-01T13:53:18;13.63;;;5.23;;
13085;SDS011;6609;49.882;8.664;2023-02-01T13:55:54;10.23;;;2.83;;
13085;SDS011;6609;49.882;8.664;2023-02-01T13:58:29;9.77;;;3.30;;
13085;SDS011;6609;49.882;8.664;2023-02-01T14:03:58;16.20;;;3.63;;
13085;SDS011;6609;49.882;8.664;2023-02-01T14:06:39;8.63;;;3.00;;
13085;SDS011;6609;49.882;8.664;2023-02-01T14:09:15;10.27;;;3.13;;
13085;SDS011;6609;49.882;8.664;2023-02-01T14:11:43;11.33;;;3.10;;
13085;SDS011;6609;49.882;8.664;2023-02-01T14:22:47;12.83;;;2.77;;
13085;SDS011;6609;49.882;8.664;2023-02-01T14:25:17;12.40;;;3.40;;
13085;SDS011;6609;49.882;8.664;2023-02-01T14:27:44;12.50;;;3.30;;
13085;SDS011;6609;49.882;8.664;2023-02-01T14:30:14;13.43;;;3.10;;
13085;SDS011;6609;49.882;8.664;2023-02-01T14:32:42;12.27;;;3.67;;
13085;SDS011;6609;49.882;8.664;2023-02-01T14:35:16;8.97;;;2.93;;
13085;SDS011;6609;49.882;8.664;2023-02-01T14:37:45;12.10;;;2.57;;
13085;SDS011;6609;49.882;8.664;2023-02-01T14:40:17;12.40;;;3.37;;
13085;SDS011;6609;49.882;8.664;2023-02-01T14:42:47;13.20;;;3.77;;
13085;SDS011;6609;49.882;8.664;2023-02-01T14:51:09;7.83;;;2.50;;
13085;SDS011;6609;49.882;8.664;2023-02-01T14:53:39;10.90;;;2.60;;
13085;SDS011;6609;49.882;8.664;2023-02-01T14:56:11;11.67;;;2.43;;
13085;SDS011;6609;49.882;8.664;2023-02-01T14:58:42;12.90;;;3.93;;
13085;SDS011;6609;49.882;8.664;2023-02-01T15:01:16;9.00;;;3.03;;
13085;SDS011;6609;49.882;8.664;2023-02-01T15:03:53;12.27;;;3.80;;
13085;SDS011;6609;49.882;8.664;2023-02-01T15:06:25;17.47;;;3.07;;
13085;SDS011;6609;49.882;8.664;2023-02-01T15:08:56;9.77;;;2.90;;
13085;SDS011;6609;49.882;8.664;2023-02-01T15:11:28;9.47;;;3.10;;
13085;SDS011;6609;49.882;8.664;2023-02-01T15:13:55;16.70;;;3.30;;
13085;SDS011;6609;49.882;8.664;2023-02-01T15:16:23;10.13;;;2.93;;
13085;SDS011;6609;49.882;8.664;2023-02-01T15:19:04;11.37;;;3.50;;
13085;SDS011;6609;49.882;8.664;2023-02-01T15:21:33;14.60;;;3.37;;
13085;SDS011;6609;49.882;8.664;2023-02-01T15:24:12;10.53;;;2.00;;
13085;SDS011;6609;49.882;8.664;2023-02-01T15:26:41;9.40;;;2.53;;
13085;SDS011;6609;49.882;8.664;2023-02-01T15:29:11;12.40;;;3.50;;
13085;SDS011;6609;49.882;8.664;2023-02-01T15:31:40;12.60;;;3.13;;
13085;SDS011;6609;49.882;8.664;2023-02-01T15:34:07;9.83;;;2.87;;
13085;SDS011;6609;49.882;8.664;2023-02-01T15:36:34;14.93;;;2.77;;